sensor_id;sensor_type;location;lat;lon;timestamp;temperature;humidity
21592;DHT22;10958;50.892;3.992;2022-07-23T00:02:07;18.60;99.90
21592;DHT22;10958;50.892;3.992;2022-07-23T00:04:33;18.40;99.90
21592;DHT22;10958;50.892;3.992;2022-07-23T00:06:59;18.30;99.90
21592;DHT22;10958;50.892;3.992;2022-07-23T00:09:24;18.20;99.90
21592;DHT22;10958;50.892;3.992;2022-07-23T00:11:50;18.10;99.90
21592;DHT22;10958;50.892;3.992;2022-07-23T00:14:16;18.10;99.90
21592;DHT22;10958;50.892;3.992;2022-07-23T00:16:41;18.00;99.90
21592;DHT22;10958;50.892;3.992;2022-07-23T00:19:07;18.20;99.90
21592;DHT22;10958;50.892;3.992;2022-07-23T00:21:33;18.30;99.90
21592;DHT22;10958;50.892;3.992;2022-07-23T00:23:58;18.40;99.90
21592;DHT22;10958;50.892;3.992;2022-07-23T00:26:24;18.60;99.90
21592;DHT22;10958;50.892;3.992;2022-07-23T00:28:50;18.60;99.90
21592;DHT22;10958;50.892;3.992;2022-07-23T00:31:15;18.50;99.90
21592;DHT22;10958;50.892;3.992;2022-07-23T00:33:41;18.50;99.90
21592;DHT22;10958;50.892;3.992;2022-07-23T00:36:07;18.50;99.90
21592;DHT22;10958;50.892;3.992;2022-07-23T00:38:32;18.40;99.90
21592;DHT22;10958;50.892;3.992;2022-07-23T00:40:58;18.40;99.90
21592;DHT22;10958;50.892;3.992;2022-07-23T00:43:24;18.10;99.90
21592;DHT22;10958;50.892;3.992;2022-07-23T00:45:50;17.70;99.90
21592;DHT22;10958;50.892;3.992;2022-07-23T00:48:16;17.60;99.90
21592;DHT22;10958;50.892;3.992;2022-07-23T00:50:43;17.70;99.90
21592;DHT22;10958;50.892;3.992;2022-07-23T00:53:09;17.80;99.90
21592;DHT22;10958;50.892;3.992;2022-07-23T00:55:35;17.90;99.90
21592;DHT22;10958;50.892;3.992;2022-07-23T00:58:01;18.10;99.90
21592;DHT22;10958;50.892;3.992;2022-07-23T01:00:27;18.10;99.90
21592;DHT22;10958;50.892;3.992;2022-07-23T01:02:53;18.00;99.90
21592;DHT22;10958;50.892;3.992;2022-07-23T01:05:19;18.00;99.90
21592;DHT22;10958;50.892;3.992;2022-07-23T01:07:48;18.00;99.90
21592;DHT22;10958;50.892;3.992;2022-07-23T01:10:14;18.10;99.90
21592;DHT22;10958;50.892;3.992;2022-07-23T01:13:07;17.90;99.90
21592;DHT22;10958;50.892;3.992;2022-07-23T01:15:34;17.90;99.90
21592;DHT22;10958;50.892;3.992;2022-07-23T01:18:02;18.00;99.90
21592;DHT22;10958;50.892;3.992;2022-07-23T01:20:28;18.10;99.90
21592;DHT22;10958;50.892;3.992;2022-07-23T01:22:54;18.00;99.90
21592;DHT22;10958;50.892;3.992;2022-07-23T01:25:21;18.00;99.90
21592;DHT22;10958;50.892;3.992;2022-07-23T01:27:47;17.90;99.90
21592;DHT22;10958;50.892;3.992;2022-07-23T01:30:13;17.80;99.90
21592;DHT22;10958;50.892;3.992;2022-07-23T01:32:39;17.70;99.90
21592;DHT22;10958;50.892;3.992;2022-07-23T01:35:06;17.60;99.90
21592;DHT22;10958;50.892;3.992;2022-07-23T01:37:31;17.60;99.90
21592;DHT22;10958;50.892;3.992;2022-07-23T01:39:57;17.60;99.90
21592;DHT22;10958;50.892;3.992;2022-07-23T01:42:23;17.70;99.90
21592;DHT22;10958;50.892;3.992;2022-07-23T01:44:49;17.90;99.90
21592;DHT22;10958;50.892;3.992;2022-07-23T01:47:14;17.80;99.90
21592;DHT22;10958;50.892;3.992;2022-07-23T01:49:40;17.70;99.90
21592;DHT22;10958;50.892;3.992;2022-07-23T01:52:06;17.70;99.90
21592;DHT22;10958;50.892;3.992;2022-07-23T01:54:34;17.50;99.90
21592;DHT22;10958;50.892;3.992;2022-07-23T01:57:00;17.60;99.90
21592;DHT22;10958;50.892;3.992;2022-07-23T01:59:27;17.70;99.90
21592;DHT22;10958;50.892;3.992;2022-07-23T02:01:53;17.70;99.90
21592;DHT22;10958;50.892;3.992;2022-07-23T02:04:20;17.60;99.90
21592;DHT22;10958;50.892;3.992;2022-07-23T02:06:46;17.40;99.90
21592;DHT22;10958;50.892;3.992;2022-07-23T02:09:12;17.50;99.90
21592;DHT22;10958;50.892;3.992;2022-07-23T02:11:38;17.60;99.90
21592;DHT22;10958;50.892;3.992;2022-07-23T02:14:04;17.50;99.90
21592;DHT22;10958;50.892;3.992;2022-07-23T02:16:30;17.30;99.90
21592;DHT22;10958;50.892;3.992;2022-07-23T02:18:55;17.20;99.90
21592;DHT22;10958;50.892;3.992;2022-07-23T02:21:21;17.20;99.90
21592;DHT22;10958;50.892;3.992;2022-07-23T02:23:47;17.20;99.90
21592;DHT22;10958;50.892;3.992;2022-07-23T02:26:13;17.20;99.90
21592;DHT22;10958;50.892;3.992;2022-07-23T02:28:38;17.20;99.90
21592;DHT22;10958;50.892;3.992;2022-07-23T02:31:04;17.30;99.90
21592;DHT22;10958;50.892;3.992;2022-07-23T02:33:30;17.50;99.90
21592;DHT22;10958;50.892;3.992;2022-07-23T02:35:56;17.70;99.90
21592;DHT22;10958;50.892;3.992;2022-07-23T02:38:22;17.60;99.90
21592;DHT22;10958;50.892;3.992;2022-07-23T02:40:47;17.50;99.90
21592;DHT22;10958;50.892;3.992;2022-07-23T02:43:13;17.50;99.90
21592;DHT22;10958;50.892;3.992;2022-07-23T02:45:38;17.50;99.90
21592;DHT22;10958;50.892;3.992;2022-07-23T02:48:04;17.50;99.90
21592;DHT22;10958;50.892;3.992;2022-07-23T02:50:30;17.50;99.90
21592;DHT22;10958;50.892;3.992;2022-07-23T02:52:56;17.30;99.90
21592;DHT22;10958;50.892;3.992;2022-07-23T02:55:21;17.40;99.90
21592;DHT22;10958;50.892;3.992;2022-07-23T02:57:47;17.50;99.90
21592;DHT22;10958;50.892;3.992;2022-07-23T03:00:13;17.60;99.90
21592;DHT22;10958;50.892;3.992;2022-07-23T03:02:38;17.60;99.90
21592;DHT22;10958;50.892;3.992;2022-07-23T03:05:05;17.60;99.90
21592;DHT22;10958;50.892;3.992;2022-07-23T03:07:30;17.60;99.90
21592;DHT22;10958;50.892;3.992;2022-07-23T03:09:56;17.60;99.90
21592;DHT22;10958;50.892;3.992;2022-07-23T03:12:22;17.30;99.90
21592;DHT22;10958;50.892;3.992;2022-07-23T03:14:47;17.10;99.90
21592;DHT22;10958;50.892;3.992;2022-07-23T03:17:13;17.10;99.90
21592;DHT22;10958;50.892;3.992;2022-07-23T03:19:39;17.20;99.90
21592;DHT22;10958;50.892;3.992;2022-07-23T03:22:04;17.20;99.90
21592;DHT22;10958;50.892;3.992;2022-07-23T03:24:30;17.20;99.90
21592;DHT22;10958;50.892;3.992;2022-07-23T03:27:15;16.80;99.90
21592;DHT22;10958;50.892;3.992;2022-07-23T03:29:41;16.00;99.90
21592;DHT22;10958;50.892;3.992;2022-07-23T03:32:07;15.60;99.90
21592;DHT22;10958;50.892;3.992;2022-07-23T03:34:32;15.30;99.90
21592;DHT22;10958;50.892;3.992;2022-07-23T03:36:58;15.30;99.90
21592;DHT22;10958;50.892;3.992;2022-07-23T03:39:24;15.40;99.90
21592;DHT22;10958;50.892;3.992;2022-07-23T03:41:49;15.60;99.90
21592;DHT22;10958;50.892;3.992;2022-07-23T03:44:15;15.80;99.90
21592;DHT22;10958;50.892;3.992;2022-07-23T03:46:41;16.00;99.90
21592;DHT22;10958;50.892;3.992;2022-07-23T03:49:07;16.00;99.90
21592;DHT22;10958;50.892;3.992;2022-07-23T03:51:32;16.10;99.90
21592;DHT22;10958;50.892;3.992;2022-07-23T03:53:58;16.10;99.90
21592;DHT22;10958;50.892;3.992;2022-07-23T03:56:24;16.10;99.90
21592;DHT22;10958;50.892;3.992;2022-07-23T03:58:50;16.00;99.90
21592;DHT22;10958;50.892;3.992;2022-07-23T04:01:15;16.10;99.90
21592;DHT22;10958;50.892;3.992;2022-07-23T04:03:41;16.10;99.90
21592;DHT22;10958;50.892;3.992;2022-07-23T04:06:06;16.30;99.90
21592;DHT22;10958;50.892;3.992;2022-07-23T04:08:32;16.10;99.90
21592;DHT22;10958;50.892;3.992;2022-07-23T04:10:58;16.10;99.90
21592;DHT22;10958;50.892;3.992;2022-07-23T04:13:23;16.10;99.90
21592;DHT22;10958;50.892;3.992;2022-07-23T04:15:49;16.20;99.90
21592;DHT22;10958;50.892;3.992;2022-07-23T04:18:16;16.20;99.90
21592;DHT22;10958;50.892;3.992;2022-07-23T04:20:47;16.10;99.90
21592;DHT22;10958;50.892;3.992;2022-07-23T04:23:13;16.20;99.90
21592;DHT22;10958;50.892;3.992;2022-07-23T04:25:38;16.40;99.90
21592;DHT22;10958;50.892;3.992;2022-07-23T04:28:04;16.50;99.90
21592;DHT22;10958;50.892;3.992;2022-07-23T04:30:30;16.50;99.90
21592;DHT22;10958;50.892;3.992;2022-07-23T04:32:55;16.70;99.90
21592;DHT22;10958;50.892;3.992;2022-07-23T04:35:21;16.80;99.90
21592;DHT22;10958;50.892;3.992;2022-07-23T04:37:47;16.90;99.90
21592;DHT22;10958;50.892;3.992;2022-07-23T04:40:13;16.80;99.90
21592;DHT22;10958;50.892;3.992;2022-07-23T04:42:39;16.80;99.90
21592;DHT22;10958;50.892;3.992;2022-07-23T04:45:05;16.90;99.90
21592;DHT22;10958;50.892;3.992;2022-07-23T04:47:31;17.00;99.90
21592;DHT22;10958;50.892;3.992;2022-07-23T04:49:57;17.20;99.90
21592;DHT22;10958;50.892;3.992;2022-07-23T04:52:23;17.30;99.90
21592;DHT22;10958;50.892;3.992;2022-07-23T04:54:49;17.40;99.90
21592;DHT22;10958;50.892;3.992;2022-07-23T04:57:14;17.20;99.90
21592;DHT22;10958;50.892;3.992;2022-07-23T04:59:40;17.00;99.90
21592;DHT22;10958;50.892;3.992;2022-07-23T05:02:06;16.90;99.90
21592;DHT22;10958;50.892;3.992;2022-07-23T05:04:31;17.10;99.90
21592;DHT22;10958;50.892;3.992;2022-07-23T05:06:58;17.30;99.90
21592;DHT22;10958;50.892;3.992;2022-07-23T05:09:24;17.60;99.90
21592;DHT22;10958;50.892;3.992;2022-07-23T05:11:49;17.70;99.90
21592;DHT22;10958;50.892;3.992;2022-07-23T05:14:15;17.40;99.90
21592;DHT22;10958;50.892;3.992;2022-07-23T05:16:41;17.40;99.90
21592;DHT22;10958;50.892;3.992;2022-07-23T05:19:07;17.60;99.90
21592;DHT22;10958;50.892;3.992;2022-07-23T05:21:32;17.80;99.90
21592;DHT22;10958;50.892;3.992;2022-07-23T05:23:58;18.00;99.90
21592;DHT22;10958;50.892;3.992;2022-07-23T05:26:24;18.20;99.90
21592;DHT22;10958;50.892;3.992;2022-07-23T05:28:50;18.40;99.90
21592;DHT22;10958;50.892;3.992;2022-07-23T05:31:16;18.50;99.90
21592;DHT22;10958;50.892;3.992;2022-07-23T05:33:42;18.50;99.90
21592;DHT22;10958;50.892;3.992;2022-07-23T05:36:07;18.50;99.90
21592;DHT22;10958;50.892;3.992;2022-07-23T05:38:33;18.20;99.90
21592;DHT22;10958;50.892;3.992;2022-07-23T05:40:59;18.30;99.90
21592;DHT22;10958;50.892;3.992;2022-07-23T05:43:25;18.50;99.90
21592;DHT22;10958;50.892;3.992;2022-07-23T05:45:51;18.80;99.90
21592;DHT22;10958;50.892;3.992;2022-07-23T05:48:16;18.90;99.90
21592;DHT22;10958;50.892;3.992;2022-07-23T05:50:42;19.20;99.90
21592;DHT22;10958;50.892;3.992;2022-07-23T05:53:08;19.10;99.90
21592;DHT22;10958;50.892;3.992;2022-07-23T05:55:33;18.90;99.90
21592;DHT22;10958;50.892;3.992;2022-07-23T05:57:59;19.50;99.90
21592;DHT22;10958;50.892;3.992;2022-07-23T06:00:26;20.30;99.90
21592;DHT22;10958;50.892;3.992;2022-07-23T06:02:52;21.40;99.90
21592;DHT22;10958;50.892;3.992;2022-07-23T06:05:18;22.10;99.90
21592;DHT22;10958;50.892;3.992;2022-07-23T06:07:44;22.40;99.90
21592;DHT22;10958;50.892;3.992;2022-07-23T06:10:10;22.90;99.90
21592;DHT22;10958;50.892;3.992;2022-07-23T06:12:36;23.70;99.90
21592;DHT22;10958;50.892;3.992;2022-07-23T06:15:03;23.80;99.90
21592;DHT22;10958;50.892;3.992;2022-07-23T06:17:29;24.80;99.90
21592;DHT22;10958;50.892;3.992;2022-07-23T06:19:55;24.80;99.90
21592;DHT22;10958;50.892;3.992;2022-07-23T06:22:21;24.80;99.90
21592;DHT22;10958;50.892;3.992;2022-07-23T06:24:47;25.20;99.90
21592;DHT22;10958;50.892;3.992;2022-07-23T06:27:13;25.80;99.90
21592;DHT22;10958;50.892;3.992;2022-07-23T06:29:39;26.00;99.90
21592;DHT22;10958;50.892;3.992;2022-07-23T06:32:06;26.00;99.90
21592;DHT22;10958;50.892;3.992;2022-07-23T06:34:32;25.60;99.90
21592;DHT22;10958;50.892;3.992;2022-07-23T06:36:58;25.20;99.90
21592;DHT22;10958;50.892;3.992;2022-07-23T06:39:23;25.10;99.90
21592;DHT22;10958;50.892;3.992;2022-07-23T06:41:50;25.30;99.90
21592;DHT22;10958;50.892;3.992;2022-07-23T06:44:16;25.40;99.90
21592;DHT22;10958;50.892;3.992;2022-07-23T06:46:42;25.10;99.90
21592;DHT22;10958;50.892;3.992;2022-07-23T06:49:08;25.10;99.90
21592;DHT22;10958;50.892;3.992;2022-07-23T06:51:34;25.40;99.90
21592;DHT22;10958;50.892;3.992;2022-07-23T06:54:00;25.00;99.90
21592;DHT22;10958;50.892;3.992;2022-07-23T06:56:25;25.60;99.90
21592;DHT22;10958;50.892;3.992;2022-07-23T06:58:51;26.00;99.90
21592;DHT22;10958;50.892;3.992;2022-07-23T07:01:17;26.50;99.90
21592;DHT22;10958;50.892;3.992;2022-07-23T07:03:43;26.90;99.90
21592;DHT22;10958;50.892;3.992;2022-07-23T07:06:08;27.50;99.90
21592;DHT22;10958;50.892;3.992;2022-07-23T07:08:34;27.70;99.90
21592;DHT22;10958;50.892;3.992;2022-07-23T07:11:00;27.60;99.90
21592;DHT22;10958;50.892;3.992;2022-07-23T07:13:25;28.10;99.90
21592;DHT22;10958;50.892;3.992;2022-07-23T07:15:51;28.80;99.90
21592;DHT22;10958;50.892;3.992;2022-07-23T07:18:17;29.00;99.90
21592;DHT22;10958;50.892;3.992;2022-07-23T07:20:42;29.40;99.90
21592;DHT22;10958;50.892;3.992;2022-07-23T07:23:08;30.10;99.90
21592;DHT22;10958;50.892;3.992;2022-07-23T07:25:34;29.60;99.90
21592;DHT22;10958;50.892;3.992;2022-07-23T07:28:00;29.60;99.90
21592;DHT22;10958;50.892;3.992;2022-07-23T07:30:25;30.20;99.90
21592;DHT22;10958;50.892;3.992;2022-07-23T07:32:51;30.60;99.90
21592;DHT22;10958;50.892;3.992;2022-07-23T07:35:17;30.70;99.90
21592;DHT22;10958;50.892;3.992;2022-07-23T07:37:42;30.10;99.90
21592;DHT22;10958;50.892;3.992;2022-07-23T07:40:08;29.80;99.90
21592;DHT22;10958;50.892;3.992;2022-07-23T07:42:34;30.40;99.90
21592;DHT22;10958;50.892;3.992;2022-07-23T07:45:00;31.20;99.90
21592;DHT22;10958;50.892;3.992;2022-07-23T07:47:26;31.80;99.90
21592;DHT22;10958;50.892;3.992;2022-07-23T07:49:52;32.00;99.90
21592;DHT22;10958;50.892;3.992;2022-07-23T07:52:17;32.00;99.90
21592;DHT22;10958;50.892;3.992;2022-07-23T07:54:43;31.90;99.90
21592;DHT22;10958;50.892;3.992;2022-07-23T07:57:09;32.10;99.90
21592;DHT22;10958;50.892;3.992;2022-07-23T07:59:35;32.00;99.90
21592;DHT22;10958;50.892;3.992;2022-07-23T08:02:01;32.10;99.90
21592;DHT22;10958;50.892;3.992;2022-07-23T08:04:26;32.30;99.90
21592;DHT22;10958;50.892;3.992;2022-07-23T08:06:52;32.10;99.90
21592;DHT22;10958;50.892;3.992;2022-07-23T08:09:18;31.90;99.90
21592;DHT22;10958;50.892;3.992;2022-07-23T08:11:43;32.30;99.90
21592;DHT22;10958;50.892;3.992;2022-07-23T08:14:09;31.60;99.90
21592;DHT22;10958;50.892;3.992;2022-07-23T08:16:36;30.90;99.90
21592;DHT22;10958;50.892;3.992;2022-07-23T08:19:02;31.40;99.90
21592;DHT22;10958;50.892;3.992;2022-07-23T08:21:27;31.60;99.90
21592;DHT22;10958;50.892;3.992;2022-07-23T08:23:53;31.60;99.90
21592;DHT22;10958;50.892;3.992;2022-07-23T08:26:19;32.60;99.90
21592;DHT22;10958;50.892;3.992;2022-07-23T08:28:44;32.60;99.90
21592;DHT22;10958;50.892;3.992;2022-07-23T08:31:10;32.70;99.90
21592;DHT22;10958;50.892;3.992;2022-07-23T08:33:37;32.00;99.90
21592;DHT22;10958;50.892;3.992;2022-07-23T08:36:03;31.40;99.90
21592;DHT22;10958;50.892;3.992;2022-07-23T08:38:29;31.30;99.90
21592;DHT22;10958;50.892;3.992;2022-07-23T08:40:56;31.40;99.90
21592;DHT22;10958;50.892;3.992;2022-07-23T08:43:33;31.10;99.90
21592;DHT22;10958;50.892;3.992;2022-07-23T08:46:01;31.60;99.90
21592;DHT22;10958;50.892;3.992;2022-07-23T08:48:30;31.80;99.90
21592;DHT22;10958;50.892;3.992;2022-07-23T08:50:58;31.10;99.90
21592;DHT22;10958;50.892;3.992;2022-07-23T08:53:25;31.40;99.90
21592;DHT22;10958;50.892;3.992;2022-07-23T08:55:57;32.10;99.90
21592;DHT22;10958;50.892;3.992;2022-07-23T08:58:24;31.70;99.90
21592;DHT22;10958;50.892;3.992;2022-07-23T09:00:50;31.40;99.90
21592;DHT22;10958;50.892;3.992;2022-07-23T09:03:20;31.00;99.90
21592;DHT22;10958;50.892;3.992;2022-07-23T09:05:47;30.50;99.90
21592;DHT22;10958;50.892;3.992;2022-07-23T09:08:17;30.80;99.90
21592;DHT22;10958;50.892;3.992;2022-07-23T09:10:47;31.30;99.90
21592;DHT22;10958;50.892;3.992;2022-07-23T09:16:04;31.50;99.90
21592;DHT22;10958;50.892;3.992;2022-07-23T09:26:21;31.90;99.90
21592;DHT22;10958;50.892;3.992;2022-07-23T09:31:25;32.20;99.90
21592;DHT22;10958;50.892;3.992;2022-07-23T09:34:10;32.30;99.90
21592;DHT22;10958;50.892;3.992;2022-07-23T09:36:36;32.30;99.90
21592;DHT22;10958;50.892;3.992;2022-07-23T09:39:03;32.00;99.90
21592;DHT22;10958;50.892;3.992;2022-07-23T09:41:40;32.50;99.90
21592;DHT22;10958;50.892;3.992;2022-07-23T09:44:08;32.40;99.90
21592;DHT22;10958;50.892;3.992;2022-07-23T09:46:34;32.60;99.90
21592;DHT22;10958;50.892;3.992;2022-07-23T09:49:22;32.70;99.90
21592;DHT22;10958;50.892;3.992;2022-07-23T09:51:53;32.60;99.90
21592;DHT22;10958;50.892;3.992;2022-07-23T09:54:23;32.70;99.90
21592;DHT22;10958;50.892;3.992;2022-07-23T09:56:55;32.50;99.90
21592;DHT22;10958;50.892;3.992;2022-07-23T09:59:29;32.60;99.90
21592;DHT22;10958;50.892;3.992;2022-07-23T10:03:41;32.70;99.90
21592;DHT22;10958;50.892;3.992;2022-07-23T10:06:09;32.90;99.90
21592;DHT22;10958;50.892;3.992;2022-07-23T10:08:35;32.60;99.90
21592;DHT22;10958;50.892;3.992;2022-07-23T10:11:01;32.30;99.90
21592;DHT22;10958;50.892;3.992;2022-07-23T10:13:28;32.20;99.90
21592;DHT22;10958;50.892;3.992;2022-07-23T10:16:13;32.80;99.90
21592;DHT22;10958;50.892;3.992;2022-07-23T10:18:39;32.90;99.90
21592;DHT22;10958;50.892;3.992;2022-07-23T10:21:07;32.80;99.90
21592;DHT22;10958;50.892;3.992;2022-07-23T10:23:51;32.80;99.90
21592;DHT22;10958;50.892;3.992;2022-07-23T10:26:36;32.70;99.90
21592;DHT22;10958;50.892;3.992;2022-07-23T10:29:21;31.60;99.90
21592;DHT22;10958;50.892;3.992;2022-07-23T10:32:53;31.50;99.90
21592;DHT22;10958;50.892;3.992;2022-07-23T10:37:37;31.30;99.90
21592;DHT22;10958;50.892;3.992;2022-07-23T10:42:36;30.90;99.90
21592;DHT22;10958;50.892;3.992;2022-07-23T10:47:51;30.20;99.90
21592;DHT22;10958;50.892;3.992;2022-07-23T10:50:23;30.20;99.90
21592;DHT22;10958;50.892;3.992;2022-07-23T10:53:16;29.90;99.90
21592;DHT22;10958;50.892;3.992;2022-07-23T10:55:46;29.80;99.90
21592;DHT22;10958;50.892;3.992;2022-07-23T10:58:46;29.60;99.90
21592;DHT22;10958;50.892;3.992;2022-07-23T11:01:35;29.40;99.90
21592;DHT22;10958;50.892;3.992;2022-07-23T11:04:02;29.00;99.90
21592;DHT22;10958;50.892;3.992;2022-07-23T11:09:42;29.00;99.90
21592;DHT22;10958;50.892;3.992;2022-07-23T11:15:02;28.40;99.90
21592;DHT22;10958;50.892;3.992;2022-07-23T11:17:28;27.90;99.90
21592;DHT22;10958;50.892;3.992;2022-07-23T11:25:03;29.00;99.90
21592;DHT22;10958;50.892;3.992;2022-07-23T11:27:44;28.90;99.90
21592;DHT22;10958;50.892;3.992;2022-07-23T11:35:45;28.50;99.90
21592;DHT22;10958;50.892;3.992;2022-07-23T11:40:40;28.10;99.90
21592;DHT22;10958;50.892;3.992;2022-07-23T11:43:10;28.40;99.90
21592;DHT22;10958;50.892;3.992;2022-07-23T11:45:40;28.70;99.90
21592;DHT22;10958;50.892;3.992;2022-07-23T11:48:08;28.30;99.90
21592;DHT22;10958;50.892;3.992;2022-07-23T11:50:35;28.10;99.90
21592;DHT22;10958;50.892;3.992;2022-07-23T11:53:01;27.70;99.90
21592;DHT22;10958;50.892;3.992;2022-07-23T11:55:27;27.70;99.90
21592;DHT22;10958;50.892;3.992;2022-07-23T11:57:54;27.80;99.90
21592;DHT22;10958;50.892;3.992;2022-07-23T12:00:29;28.20;99.90
21592;DHT22;10958;50.892;3.992;2022-07-23T12:03:01;28.50;99.90
21592;DHT22;10958;50.892;3.992;2022-07-23T12:05:37;28.30;99.90
21592;DHT22;10958;50.892;3.992;2022-07-23T12:08:08;27.90;99.90
21592;DHT22;10958;50.892;3.992;2022-07-23T12:10:43;27.80;99.90
21592;DHT22;10958;50.892;3.992;2022-07-23T12:13:14;27.80;99.90
21592;DHT22;10958;50.892;3.992;2022-07-23T12:15:46;27.80;99.90
21592;DHT22;10958;50.892;3.992;2022-07-23T12:18:16;27.80;99.90
21592;DHT22;10958;50.892;3.992;2022-07-23T12:20:51;27.80;99.90
21592;DHT22;10958;50.892;3.992;2022-07-23T12:23:20;27.40;99.90
21592;DHT22;10958;50.892;3.992;2022-07-23T12:25:48;27.50;99.90
21592;DHT22;10958;50.892;3.992;2022-07-23T12:28:28;28.10;99.90
21592;DHT22;10958;50.892;3.992;2022-07-23T12:30:56;28.60;99.90
21592;DHT22;10958;50.892;3.992;2022-07-23T12:35:59;28.30;99.90
21592;DHT22;10958;50.892;3.992;2022-07-23T12:38:28;28.00;99.90
21592;DHT22;10958;50.892;3.992;2022-07-23T12:41:01;28.00;99.90
21592;DHT22;10958;50.892;3.992;2022-07-23T12:43:36;28.00;99.90
21592;DHT22;10958;50.892;3.992;2022-07-23T12:46:06;27.90;99.90
21592;DHT22;10958;50.892;3.992;2022-07-23T12:48:34;27.70;99.90
21592;DHT22;10958;50.892;3.992;2022-07-23T12:53:39;27.90;99.90
21592;DHT22;10958;50.892;3.992;2022-07-23T12:56:18;28.00;99.90
21592;DHT22;10958;50.892;3.992;2022-07-23T12:58:58;27.90;99.90
21592;DHT22;10958;50.892;3.992;2022-07-23T13:02:11;28.10;99.90
21592;DHT22;10958;50.892;3.992;2022-07-23T13:04:20;28.40;99.90
21592;DHT22;10958;50.892;3.992;2022-07-23T13:06:49;28.20;99.90
21592;DHT22;10958;50.892;3.992;2022-07-23T13:09:23;28.50;99.90
21592;DHT22;10958;50.892;3.992;2022-07-23T13:11:50;28.70;99.90
21592;DHT22;10958;50.892;3.992;2022-07-23T13:14:17;29.10;99.90
21592;DHT22;10958;50.892;3.992;2022-07-23T13:16:44;29.30;99.90
21592;DHT22;10958;50.892;3.992;2022-07-23T13:19:10;29.50;99.90
21592;DHT22;10958;50.892;3.992;2022-07-23T13:21:36;29.30;99.90
21592;DHT22;10958;50.892;3.992;2022-07-23T13:24:02;29.50;99.90
21592;DHT22;10958;50.892;3.992;2022-07-23T13:26:28;29.40;99.90
21592;DHT22;10958;50.892;3.992;2022-07-23T13:28:54;29.30;99.90
21592;DHT22;10958;50.892;3.992;2022-07-23T13:31:19;28.60;99.90
21592;DHT22;10958;50.892;3.992;2022-07-23T13:33:45;28.20;99.90
21592;DHT22;10958;50.892;3.992;2022-07-23T13:36:11;27.90;99.90
21592;DHT22;10958;50.892;3.992;2022-07-23T13:38:37;28.40;99.90
21592;DHT22;10958;50.892;3.992;2022-07-23T13:41:03;28.70;99.90
21592;DHT22;10958;50.892;3.992;2022-07-23T13:43:28;28.70;99.90
21592;DHT22;10958;50.892;3.992;2022-07-23T13:45:54;28.60;99.90
21592;DHT22;10958;50.892;3.992;2022-07-23T13:48:20;28.80;99.90
21592;DHT22;10958;50.892;3.992;2022-07-23T13:50:47;28.80;99.90
21592;DHT22;10958;50.892;3.992;2022-07-23T13:53:21;29.10;99.90
21592;DHT22;10958;50.892;3.992;2022-07-23T13:55:49;29.50;99.90
21592;DHT22;10958;50.892;3.992;2022-07-23T13:58:15;29.50;99.90
21592;DHT22;10958;50.892;3.992;2022-07-23T14:00:45;29.50;99.90
21592;DHT22;10958;50.892;3.992;2022-07-23T14:03:11;29.40;99.90
21592;DHT22;10958;50.892;3.992;2022-07-23T14:05:36;29.60;99.90
21592;DHT22;10958;50.892;3.992;2022-07-23T14:08:03;29.20;99.90
21592;DHT22;10958;50.892;3.992;2022-07-23T14:10:29;28.50;99.90
21592;DHT22;10958;50.892;3.992;2022-07-23T14:12:55;28.50;99.90
21592;DHT22;10958;50.892;3.992;2022-07-23T14:15:24;28.60;99.90
21592;DHT22;10958;50.892;3.992;2022-07-23T14:17:52;28.90;99.90
21592;DHT22;10958;50.892;3.992;2022-07-23T14:20:18;29.30;99.90
21592;DHT22;10958;50.892;3.992;2022-07-23T14:22:43;29.20;99.90
21592;DHT22;10958;50.892;3.992;2022-07-23T14:25:11;29.10;99.90
21592;DHT22;10958;50.892;3.992;2022-07-23T14:27:37;29.50;99.90
21592;DHT22;10958;50.892;3.992;2022-07-23T14:30:04;29.50;99.90
21592;DHT22;10958;50.892;3.992;2022-07-23T14:32:30;29.40;99.90
21592;DHT22;10958;50.892;3.992;2022-07-23T14:34:56;29.50;99.90
21592;DHT22;10958;50.892;3.992;2022-07-23T14:37:21;29.50;99.90
21592;DHT22;10958;50.892;3.992;2022-07-23T14:39:47;29.60;99.90
21592;DHT22;10958;50.892;3.992;2022-07-23T14:42:13;29.80;99.90
21592;DHT22;10958;50.892;3.992;2022-07-23T14:44:39;30.00;99.90
21592;DHT22;10958;50.892;3.992;2022-07-23T14:47:05;30.00;99.90
21592;DHT22;10958;50.892;3.992;2022-07-23T14:49:32;30.10;99.90
21592;DHT22;10958;50.892;3.992;2022-07-23T14:51:58;30.20;99.90
21592;DHT22;10958;50.892;3.992;2022-07-23T14:54:25;30.10;99.90
21592;DHT22;10958;50.892;3.992;2022-07-23T14:56:55;30.30;99.90
21592;DHT22;10958;50.892;3.992;2022-07-23T14:59:20;30.20;99.90
21592;DHT22;10958;50.892;3.992;2022-07-23T15:01:46;29.50;99.90
21592;DHT22;10958;50.892;3.992;2022-07-23T15:04:12;28.70;99.90
21592;DHT22;10958;50.892;3.992;2022-07-23T15:06:38;28.70;99.90
21592;DHT22;10958;50.892;3.992;2022-07-23T15:09:04;28.90;99.90
21592;DHT22;10958;50.892;3.992;2022-07-23T15:11:30;28.60;99.90
21592;DHT22;10958;50.892;3.992;2022-07-23T15:14:03;28.30;99.90
21592;DHT22;10958;50.892;3.992;2022-07-23T15:16:29;28.00;99.90
21592;DHT22;10958;50.892;3.992;2022-07-23T15:18:55;28.10;99.90
21592;DHT22;10958;50.892;3.992;2022-07-23T15:21:21;28.20;99.90
21592;DHT22;10958;50.892;3.992;2022-07-23T15:23:47;28.30;99.90
21592;DHT22;10958;50.892;3.992;2022-07-23T15:26:14;28.00;99.90
21592;DHT22;10958;50.892;3.992;2022-07-23T15:28:41;28.40;99.90
21592;DHT22;10958;50.892;3.992;2022-07-23T15:31:07;28.70;99.90
21592;DHT22;10958;50.892;3.992;2022-07-23T15:33:33;29.10;99.90
21592;DHT22;10958;50.892;3.992;2022-07-23T15:36:00;29.10;99.90
21592;DHT22;10958;50.892;3.992;2022-07-23T15:38:27;29.00;99.90
21592;DHT22;10958;50.892;3.992;2022-07-23T15:40:54;29.00;99.90
21592;DHT22;10958;50.892;3.992;2022-07-23T15:43:20;29.10;99.90
21592;DHT22;10958;50.892;3.992;2022-07-23T15:45:47;29.40;99.90
21592;DHT22;10958;50.892;3.992;2022-07-23T15:48:13;29.40;99.90
21592;DHT22;10958;50.892;3.992;2022-07-23T15:50:39;29.30;99.90
21592;DHT22;10958;50.892;3.992;2022-07-23T15:53:05;29.10;99.90
21592;DHT22;10958;50.892;3.992;2022-07-23T15:55:30;28.70;99.90
21592;DHT22;10958;50.892;3.992;2022-07-23T15:57:56;28.50;99.90
21592;DHT22;10958;50.892;3.992;2022-07-23T16:00:21;28.80;99.90
21592;DHT22;10958;50.892;3.992;2022-07-23T16:02:47;29.10;99.90
21592;DHT22;10958;50.892;3.992;2022-07-23T16:05:13;29.40;99.90
21592;DHT22;10958;50.892;3.992;2022-07-23T16:07:38;29.50;99.90
21592;DHT22;10958;50.892;3.992;2022-07-23T16:10:07;29.50;99.90
21592;DHT22;10958;50.892;3.992;2022-07-23T16:12:35;29.60;99.90
21592;DHT22;10958;50.892;3.992;2022-07-23T16:15:01;29.80;99.90
21592;DHT22;10958;50.892;3.992;2022-07-23T16:17:28;29.70;99.90
21592;DHT22;10958;50.892;3.992;2022-07-23T16:19:54;29.00;99.90